Terminal Aerodrome Forecast
Issued by NWS Wilmington, NC

Home | Current Version | Previous Version | Text Only | Print | Product List | Glossary On
Versions: 1 2 3 4 5 6 7 8 9 10 11 12 13 14 15 16 17 18
000
FTUS42 KILM 302336
TAFMYR
TAF
KMYR 302336Z 3100/3124 13011KT P6SM VCSH BKN015 BKN025
     FM310200 11006KT P6SM VCSH BKN040 OVC100
     FM310900 03005KT 6SM BR SCT007 BKN015
     FM311300 01008KT P6SM VCTS SCT015CB BKN025
     FM312200 16009KT P6SM VCSH SCT030 BKN050
      AMD LTD TO CLD VIS AND WIND 3104/3111=

USA.gov is the U.S. government's official web portal to all federal, state and local government web resources and services.